Time;durP1;ratioP1;P1;durP2;ratioP2;P2;SDS_P1;SDS_P2;PMS_P1;PMS_P2;Temp;Humidity;BMP_temperature;BMP_pressure;BME280_temperature;BME280_humidity;BME280_pressure;Samples;Min_cycle;Max_cycle;Signal;HPM_P1;HPM_P2
2023/03/04 00:01:29;;;;;;;31.93;18.33;;;;;;;0.06;68.57;97994.38;6269104;28;20236;-37
2023/03/04 00:04:31;;;;;;;33.07;19.20;;;;;;;0.09;69.02;97978.31;6277267;28;20243;-38
2023/03/04 00:07:33;;;;;;;26.87;16.87;;;;;;;0.14;68.87;97975.19;6290459;28;20221;-38
2023/03/04 00:10:35;;;;;;;30.93;18.70;;;;;;;0.19;68.64;97978.13;6289780;28;20237;-38
2023/03/04 00:13:37;;;;;;;29.53;18.83;;;;;;;0.19;68.52;97975.50;6287749;28;20605;-38
2023/03/04 00:16:39;;;;;;;27.47;17.90;;;;;;;0.18;68.36;97979.94;6288692;28;20297;-38
2023/03/04 00:19:41;;;;;;;28.53;18.47;;;;;;;0.20;68.26;97969.31;6288906;28;20245;-38
2023/03/04 00:22:43;;;;;;;26.60;16.60;;;;;;;0.19;68.26;97972.88;6286541;28;20304;-38
2023/03/04 00:25:45;;;;;;;25.60;17.00;;;;;;;0.20;68.20;97970.13;6289063;28;20245;-38
2023/03/04 00:28:47;;;;;;;28.90;16.93;;;;;;;0.18;68.40;97972.06;6290233;28;20226;-38
2023/03/04 00:31:49;;;;;;;26.17;15.37;;;;;;;0.17;68.16;97973.06;6291482;28;20234;-38
2023/03/04 00:34:51;;;;;;;26.67;16.33;;;;;;;0.19;67.91;97988.59;6288955;28;20226;-38
2023/03/04 00:37:53;;;;;;;26.07;15.80;;;;;;;0.15;67.96;97969.00;6274012;28;20636;-38
2023/03/04 00:40:55;;;;;;;25.03;15.03;;;;;;;0.06;68.17;97957.72;6288800;28;20588;-38
2023/03/04 00:43:57;;;;;;;23.07;13.43;;;;;;;0.05;68.27;97957.84;6288797;28;20373;-38
2023/03/04 00:46:59;;;;;;;22.13;13.87;;;;;;;0.04;68.38;97964.09;6273515;28;20234;-38
2023/03/04 00:50:02;;;;;;;22.70;14.10;;;;;;;0.04;68.14;97956.22;6287303;28;20608;-38
2023/03/04 00:53:04;;;;;;;21.87;13.03;;;;;;;-0.02;68.51;97952.47;6274210;28;20236;-38
2023/03/04 00:56:07;;;;;;;21.07;12.93;;;;;;;-0.29;68.67;97910.03;6296275;28;20585;-38
2023/03/04 00:59:09;;;;;;;19.33;12.87;;;;;;;-0.08;68.68;97935.66;6292182;28;20538;-38
2023/03/04 01:02:11;;;;;;;20.90;12.53;;;;;;;-0.10;68.98;97929.78;6272294;28;20231;-38
2023/03/04 01:05:14;;;;;;;21.33;12.67;;;;;;;-0.15;69.05;97936.47;6291553;28;20375;-38
2023/03/04 01:08:16;;;;;;;19.73;12.83;;;;;;;-0.39;69.45;97905.97;6293326;28;20668;-37
2023/03/04 01:11:18;;;;;;;18.67;12.47;;;;;;;-0.20;69.79;97926.50;6292976;28;20599;-38
2023/03/04 01:14:21;;;;;;;20.30;12.90;;;;;;;-0.21;70.14;97922.25;6292476;28;20234;-38
2023/03/04 01:17:23;;;;;;;18.57;11.63;;;;;;;-0.42;70.16;97887.97;6292497;28;20253;-38
2023/03/04 01:20:25;;;;;;;20.77;12.53;;;;;;;-0.33;70.95;97905.28;6289179;28;20237;-38
2023/03/04 01:23:27;;;;;;;22.67;13.33;;;;;;;-0.12;71.51;97908.16;6292501;28;20599;-38
2023/03/04 01:26:29;;;;;;;21.97;13.10;;;;;;;0.04;71.18;97909.09;6292351;28;20238;-37
2023/03/04 01:29:31;;;;;;;22.30;14.23;;;;;;;0.06;70.77;97889.63;6292106;28;20404;-38
2023/03/04 01:32:33;;;;;;;25.17;14.57;;;;;;;0.26;71.28;97890.03;6292162;28;20229;-38
2023/03/04 01:35:35;;;;;;;21.40;13.67;;;;;;;0.15;70.71;97861.59;6292867;28;20319;-38
2023/03/04 01:38:38;;;;;;;23.00;14.67;;;;;;;0.29;72.21;97884.41;6292613;28;20232;-38
2023/03/04 01:41:41;;;;;;;28.43;16.97;;;;;;;0.50;72.83;97884.66;6293506;28;20237;-38
2023/03/04 01:44:44;;;;;;;36.70;19.70;;;;;;;0.59;72.96;97877.56;6274328;28;20789;-38
2023/03/04 01:47:48;;;;;;;30.10;18.13;;;;;;;0.75;72.74;97874.81;6295941;28;20599;-43
2023/03/04 01:50:50;;;;;;;37.53;21.67;;;;;;;0.88;72.87;97873.41;6273455;28;20698;-38
2023/03/04 01:53:53;;;;;;;37.53;21.90;;;;;;;0.94;74.93;97870.91;6290684;28;20238;-38
2023/03/04 01:56:59;;;;;;;47.30;26.47;;;;;;;1.15;74.62;97858.94;6290736;28;20314;-37
2023/03/04 02:00:32;;;;;;;44.50;26.53;;;;;;;1.36;75.84;97861.69;6275570;28;20260;-37
2023/03/04 02:03:34;;;;;;;56.57;32.40;;;;;;;1.68;77.37;97860.56;6149742;28;20312;-38
2023/03/04 02:06:38;;;;;;;54.30;32.57;;;;;;;2.01;76.51;97849.66;6153331;28;20238;-39
2023/03/04 02:09:40;;;;;;;45.93;28.00;;;;;;;1.98;75.06;97857.94;6164530;28;20238;-38
2023/03/04 02:12:47;;;;;;;49.03;28.53;;;;;;;2.04;75.11;97839.59;6150556;28;20238;-38
2023/03/04 02:15:49;;;;;;;57.13;33.67;;;;;;;2.21;75.42;97848.09;6167253;28;20753;-38
2023/03/04 02:18:51;;;;;;;54.93;30.23;;;;;;;2.47;75.27;97836.25;6170126;28;20733;-38
2023/03/04 02:21:53;;;;;;;45.13;27.33;;;;;;;2.41;73.48;97829.91;6168512;28;20236;-38
2023/03/04 02:25:02;;;;;;;57.17;33.90;;;;;;;2.52;75.28;97823.38;6164309;28;20235;-38
2023/03/04 02:28:04;;;;;;;65.33;37.07;;;;;;;2.75;75.90;97826.59;6168339;28;20241;-38
2023/03/04 02:31:35;;;;;;;65.67;37.03;;;;;;;3.14;75.06;97825.31;6149694;28;20327;-38
2023/03/04 02:34:42;;;;;;;67.63;37.47;;;;;;;3.35;73.82;97808.69;6155255;28;20317;-38
2023/03/04 02:37:47;;;;;;;56.77;35.07;;;;;;;3.38;73.38;97784.59;6157517;28;20316;-38
2023/03/04 02:40:52;;;;;;;59.07;34.70;;;;;;;3.77;72.64;97812.97;6260310;28;20584;-38
2023/03/04 02:43:55;;;;;;;54.17;33.50;;;;;;;3.87;72.01;97815.25;6289613;28;20240;-38
2023/03/04 02:46:57;;;;;;;57.47;34.73;;;;;;;3.91;71.96;97805.94;6274579;28;20230;-38
2023/03/04 02:50:00;;;;;;;58.50;35.03;;;;;;;3.84;71.42;97765.56;6269722;28;20288;-38
2023/03/04 02:53:02;;;;;;;59.60;33.73;;;;;;;4.01;71.41;97789.78;6289740;28;20229;-38
2023/03/04 02:56:05;;;;;;;53.93;30.57;;;;;;;3.93;70.99;97766.22;6291135;28;20379;-38
2023/03/04 02:59:10;;;;;;;60.63;35.90;;;;;;;4.04;70.91;97778.81;6289114;28;20226;-38
2023/03/04 03:02:12;;;;;;;52.07;33.20;;;;;;;4.14;70.57;97779.28;6289229;28;20773;-38
2023/03/04 03:05:15;;;;;;;60.07;35.77;;;;;;;4.06;70.28;97780.25;6270417;28;20232;-38
2023/03/04 03:08:17;;;;;;;53.57;31.73;;;;;;;3.93;70.31;97745.94;6287555;28;20233;-38
2023/03/04 03:11:19;;;;;;;56.00;35.50;;;;;;;4.23;69.90;97777.25;6290426;28;20229;-38
2023/03/04 03:14:21;;;;;;;51.43;32.33;;;;;;;4.21;69.20;97785.38;6292364;28;20237;-38
2023/03/04 03:17:23;;;;;;;56.50;34.07;;;;;;;4.09;70.07;97779.88;6272370;28;20225;-38
2023/03/04 03:20:25;;;;;;;48.33;31.53;;;;;;;4.09;70.09;97768.53;6270290;28;20230;-38
2023/03/04 03:23:27;;;;;;;46.07;31.50;;;;;;;4.16;69.46;97769.34;6256487;28;20222;-38
2023/03/04 03:26:29;;;;;;;54.77;33.50;;;;;;;4.10;68.82;97767.50;6288849;28;20241;-38
2023/03/04 03:29:31;;;;;;;46.83;29.87;;;;;;;4.01;70.12;97758.13;6287379;28;20388;-38
2023/03/04 03:32:33;;;;;;;53.33;32.70;;;;;;;4.04;70.52;97748.03;6294781;28;20229;-38
2023/03/04 03:35:35;;;;;;;57.23;35.17;;;;;;;4.23;70.13;97749.06;6288535;28;20233;-38
2023/03/04 03:38:37;;;;;;;53.40;31.47;;;;;;;4.36;69.58;97732.47;6287779;28;20230;-38
2023/03/04 03:41:40;;;;;;;53.67;32.23;;;;;;;4.36;69.13;97735.91;6291052;28;20474;-38
2023/03/04 03:44:42;;;;;;;54.73;32.53;;;;;;;4.42;69.31;97738.75;6288746;28;20230;-38
2023/03/04 03:47:44;;;;;;;49.17;30.83;;;;;;;4.46;69.15;97732.06;6290895;28;20237;-38
2023/03/04 03:50:46;;;;;;;51.20;32.40;;;;;;;4.34;69.26;97731.88;6288885;28;20241;-42
2023/03/04 03:53:48;;;;;;;53.97;33.43;;;;;;;4.32;69.07;97718.84;6289138;28;20226;-38
2023/03/04 03:56:50;;;;;;;45.73;29.90;;;;;;;4.24;68.48;97711.16;6291198;28;20243;-38
2023/03/04 03:59:52;;;;;;;49.60;30.20;;;;;;;4.17;69.45;97712.94;6289661;28;20271;-38
2023/03/04 04:02:56;;;;;;;50.53;30.63;;;;;;;4.09;69.16;97716.59;6290912;28;20240;-39
2023/03/04 04:05:59;;;;;;;49.07;31.03;;;;;;;4.02;69.22;97720.22;6290619;28;20242;-38
2023/03/04 04:09:01;;;;;;;44.47;29.03;;;;;;;3.77;69.46;97701.50;6289653;28;20257;-38
2023/03/04 04:12:06;;;;;;;52.27;34.03;;;;;;;3.80;70.83;97716.94;6287182;28;20439;-38
2023/03/04 04:15:11;;;;;;;51.17;31.37;;;;;;;3.85;70.72;97709.25;6288534;28;20241;-38
2023/03/04 04:18:13;;;;;;;50.80;31.33;;;;;;;3.99;70.68;97717.97;6288350;28;20214;-38
2023/03/04 04:21:15;;;;;;;48.87;31.93;;;;;;;4.14;69.77;97693.09;6294938;28;20293;-38
2023/03/04 04:24:17;;;;;;;56.03;33.07;;;;;;;4.16;69.43;97697.34;6294874;28;20711;-38
2023/03/04 04:27:19;;;;;;;53.10;33.27;;;;;;;4.12;69.38;97704.84;6298691;28;20234;-38
2023/03/04 04:30:21;;;;;;;57.73;33.77;;;;;;;4.10;70.16;97698.97;6294521;28;20237;-38
2023/03/04 04:33:24;;;;;;;53.50;33.07;;;;;;;4.11;70.21;97696.13;6299580;28;20263;-38
2023/03/04 04:36:26;;;;;;;50.57;31.50;;;;;;;4.18;69.87;97701.38;6298086;28;20644;-37
2023/03/04 04:39:28;;;;;;;54.30;33.00;;;;;;;4.29;69.72;97702.66;6293137;28;20217;-37
2023/03/04 04:42:30;;;;;;;48.33;30.13;;;;;;;4.45;69.00;97704.88;6292281;28;20237;-38
2023/03/04 04:45:33;;;;;;;54.27;31.17;;;;;;;4.53;68.70;97690.66;6295482;28;20604;-37
2023/03/04 04:48:35;;;;;;;49.70;31.50;;;;;;;4.45;68.42;97686.41;6289754;28;20232;-38
2023/03/04 04:51:38;;;;;;;54.73;30.70;;;;;;;4.53;68.71;97699.41;6289651;28;20230;-38
2023/03/04 04:54:40;;;;;;;45.90;29.67;;;;;;;4.60;68.10;97699.41;6291052;28;20234;-38
2023/03/04 04:57:42;;;;;;;48.40;31.67;;;;;;;4.54;68.31;97687.84;6294774;28;20229;-38
2023/03/04 05:00:44;;;;;;;49.47;30.03;;;;;;;4.63;67.88;97675.25;6290187;28;20730;-38
2023/03/04 05:03:48;;;;;;;46.00;31.43;;;;;;;4.63;67.79;97689.28;6291552;28;20308;-38
2023/03/04 05:06:50;;;;;;;51.47;29.93;;;;;;;4.54;67.63;97674.66;6284548;28;20237;-38
2023/03/04 05:09:52;;;;;;;47.60;29.80;;;;;;;4.44;67.70;97697.19;6293990;28;20227;-38
2023/03/04 05:12:54;;;;;;;47.67;31.37;;;;;;;4.40;68.51;97678.31;6290963;28;20237;-38
2023/03/04 05:15:57;;;;;;;49.30;30.87;;;;;;;4.53;67.78;97685.38;6295548;28;20283;-38
2023/03/04 05:18:59;;;;;;;40.67;26.93;;;;;;;4.47;67.91;97688.84;6291841;28;20222;-38
2023/03/04 05:22:01;;;;;;;48.93;29.80;;;;;;;4.49;67.95;97681.56;6291421;28;20706;-38
2023/03/04 05:25:03;;;;;;;49.30;29.87;;;;;;;4.58;67.64;97683.78;6292965;28;20234;-38
2023/03/04 05:28:06;;;;;;;44.97;28.07;;;;;;;4.56;67.34;97674.44;6289189;28;20247;-38
2023/03/04 05:31:08;;;;;;;46.50;28.67;;;;;;;4.39;67.41;97666.94;6294437;28;20351;-43
2023/03/04 05:34:10;;;;;;;46.43;29.23;;;;;;;4.32;67.98;97681.94;6292675;28;20247;-38
2023/03/04 05:37:12;;;;;;;43.20;26.47;;;;;;;4.20;68.22;97670.38;6290423;28;20214;-38
2023/03/04 05:40:14;;;;;;;43.20;26.57;;;;;;;4.28;68.11;97685.19;6291540;28;20438;-38
2023/03/04 05:43:16;;;;;;;49.83;30.83;;;;;;;4.44;67.56;97678.72;6291676;28;20711;-38
2023/03/04 05:46:24;;;;;;;48.53;30.10;;;;;;;4.59;66.92;97680.13;6296243;28;20225;-38
2023/03/04 05:49:26;;;;;;;40.37;27.43;;;;;;;4.65;66.71;97675.88;6292568;28;20297;-37
2023/03/04 05:52:28;;;;;;;45.90;28.73;;;;;;;4.64;66.86;97674.25;6290452;28;20221;-38
2023/03/04 05:55:31;;;;;;;49.80;31.87;;;;;;;4.82;66.10;97697.34;6272659;28;20226;-39
2023/03/04 05:58:33;;;;;;;48.23;30.63;;;;;;;4.94;65.68;97674.63;6288682;28;20317;-38
2023/03/04 06:01:35;;;;;;;54.50;30.93;;;;;;;4.95;65.78;97686.78;6290967;28;20230;-39
2023/03/04 06:04:37;;;;;;;55.17;33.13;;;;;;;4.97;64.95;97683.94;6290867;28;20231;-38
2023/03/04 06:07:41;;;;;;;52.87;32.00;;;;;;;5.16;64.69;97701.56;6292293;28;20777;-38
2023/03/04 06:10:44;;;;;;;47.20;30.03;;;;;;;5.26;64.22;97717.81;6286892;28;20234;-38
2023/03/04 06:13:46;;;;;;;49.00;30.30;;;;;;;5.40;63.86;97705.38;6290609;28;20697;-38
2023/03/04 06:16:48;;;;;;;50.60;30.60;;;;;;;5.20;64.51;97701.97;6288024;28;20330;-38
2023/03/04 06:19:50;;;;;;;46.43;29.57;;;;;;;5.35;63.92;97698.06;6291768;28;20233;-38
2023/03/04 06:22:52;;;;;;;49.23;31.07;;;;;;;5.38;63.80;97700.31;6295139;28;20307;-39
2023/03/04 06:25:56;;;;;;;50.83;31.50;;;;;;;5.42;63.50;97687.50;6277530;28;20574;-38
2023/03/04 06:28:58;;;;;;;52.87;30.03;;;;;;;5.53;62.95;97704.53;6268482;28;20604;-38
2023/03/04 06:32:00;;;;;;;47.30;31.10;;;;;;;5.54;63.24;97706.16;6291324;28;20649;-39
2023/03/04 06:35:03;;;;;;;49.67;31.50;;;;;;;5.62;62.65;97700.66;6292107;28;20238;-38
2023/03/04 06:38:05;;;;;;;48.77;29.03;;;;;;;5.70;62.21;97718.88;6291721;28;20782;-38
2023/03/04 06:41:10;;;;;;;49.63;30.50;;;;;;;5.57;62.15;97693.34;6292606;28;20586;-38
2023/03/04 06:44:12;;;;;;;47.50;30.13;;;;;;;5.80;62.01;97713.16;6272098;28;20286;-38
2023/03/04 06:47:14;;;;;;;48.53;31.73;;;;;;;5.75;62.14;97712.97;6269272;28;20241;-38
2023/03/04 06:50:16;;;;;;;48.03;29.90;;;;;;;5.82;61.83;97713.78;6287327;28;20233;-38
2023/03/04 06:53:19;;;;;;;43.23;28.80;;;;;;;5.88;61.89;97719.03;6290329;28;20232;-38
2023/03/04 06:56:21;;;;;;;49.43;31.27;;;;;;;5.92;61.60;97724.75;6288940;28;20780;-38
2023/03/04 06:59:23;;;;;;;45.97;30.07;;;;;;;5.95;61.50;97716.38;6293434;28;20332;-38
2023/03/04 07:02:25;;;;;;;50.77;32.57;;;;;;;5.75;61.16;97682.06;6286667;28;20654;-38
2023/03/04 07:05:27;;;;;;;47.73;29.50;;;;;;;6.16;60.76;97723.19;6284589;28;20255;-38
2023/03/04 07:08:29;;;;;;;48.03;31.77;;;;;;;6.23;60.41;97717.84;6289808;28;20637;-38
2023/03/04 07:11:31;;;;;;;49.37;32.33;;;;;;;6.26;60.45;97717.44;6287649;28;20710;-38
2023/03/04 07:14:33;;;;;;;51.03;32.10;;;;;;;6.31;60.20;97705.19;6289986;28;20227;-38
2023/03/04 07:17:35;;;;;;;51.10;32.53;;;;;;;6.37;59.86;97717.56;6292792;28;20226;-38
2023/03/04 07:20:37;;;;;;;52.27;33.07;;;;;;;6.43;59.36;97719.34;6285939;28;20234;-38
2023/03/04 07:23:40;;;;;;;50.23;32.07;;;;;;;6.49;59.46;97722.16;6289737;28;20227;-38
2023/03/04 07:26:41;;;;;;;50.33;31.63;;;;;;;6.55;59.42;97719.47;6289446;28;20241;-38
2023/03/04 07:29:44;;;;;;;48.60;31.37;;;;;;;6.56;59.41;97713.16;6293232;28;20258;-39
2023/03/04 07:32:46;;;;;;;49.47;32.07;;;;;;;6.60;58.95;97713.50;6277207;28;20546;-38
2023/03/04 07:35:48;;;;;;;55.13;32.43;;;;;;;6.60;59.04;97713.50;6289077;28;20252;-38
2023/03/04 07:38:53;;;;;;;56.50;31.67;;;;;;;6.66;58.93;97710.03;6289455;28;20798;-38
2023/03/04 07:41:55;;;;;;;49.50;32.93;;;;;;;6.70;59.00;97712.03;6269394;28;20233;-38
2023/03/04 07:45:00;;;;;;;48.00;31.33;;;;;;;6.76;58.71;97709.53;6274019;28;20219;-38
2023/03/04 07:48:02;;;;;;;48.20;30.80;;;;;;;6.92;58.49;97706.34;6269877;28;20748;-38
2023/03/04 07:51:16;;;;;;;49.63;31.57;;;;;;;6.92;57.92;97711.63;6290956;28;20286;-38
2023/03/04 07:54:19;;;;;;;43.30;29.30;;;;;;;7.13;57.83;97702.47;6286116;28;20707;-38
2023/03/04 07:57:21;;;;;;;39.13;27.83;;;;;;;7.33;57.41;97697.78;6290401;28;20684;-38
2023/03/04 08:00:23;;;;;;;43.47;30.03;;;;;;;7.15;56.95;97663.34;6290028;28;20963;-38
2023/03/04 08:03:25;;;;;;;42.30;28.70;;;;;;;7.46;56.77;97696.81;6290561;28;20229;-38
2023/03/04 08:06:27;;;;;;;42.33;29.07;;;;;;;7.53;56.15;97689.59;6296626;28;20826;-38
2023/03/04 08:09:30;;;;;;;44.17;29.13;;;;;;;7.90;55.15;97693.03;6289939;28;20229;-38
2023/03/04 08:12:33;;;;;;;43.37;28.90;;;;;;;8.39;53.22;97703.63;6295576;28;20864;-38
2023/03/04 08:15:41;;;;;;;45.87;28.47;;;;;;;8.36;52.90;97709.34;6289798;28;20243;-38
2023/03/04 08:18:46;;;;;;;40.93;27.20;;;;;;;10.14;48.04;97715.97;6304571;28;20225;-38
2023/03/04 08:21:49;;;;;;;40.90;26.40;;;;;;;12.69;41.20;97683.97;6306611;28;20183;-38
2023/03/04 08:24:51;;;;;;;38.90;26.03;;;;;;;14.19;37.87;97703.00;6311174;28;20217;-38
2023/03/04 08:27:57;;;;;;;38.00;25.93;;;;;;;16.33;34.22;97701.06;6286567;28;20772;-39
2023/03/04 08:30:59;;;;;;;34.83;25.50;;;;;;;17.07;31.75;97708.06;6267121;28;20219;-38
2023/03/04 08:34:03;;;;;;;35.07;25.37;;;;;;;18.02;30.09;97690.38;6272862;28;20223;-39
2023/03/04 08:37:06;;;;;;;34.30;24.20;;;;;;;17.77;30.83;97708.44;6274354;28;20289;-39
2023/03/04 08:40:10;;;;;;;34.70;25.23;;;;;;;16.93;31.03;97702.53;6260197;28;20231;-38
2023/03/04 08:43:12;;;;;;;32.73;25.13;;;;;;;15.32;34.51;97729.88;6268400;28;20234;-39
2023/03/04 08:46:14;;;;;;;33.90;24.43;;;;;;;15.36;33.61;97714.84;6269154;28;20253;-38
2023/03/04 08:49:16;;;;;;;31.67;24.60;;;;;;;15.59;32.53;97708.88;6267044;28;20242;-38
2023/03/04 08:52:18;;;;;;;30.53;22.77;;;;;;;15.58;33.01;97719.91;6269465;28;20384;-38
2023/03/04 08:55:20;;;;;;;30.10;22.20;;;;;;;13.85;35.73;97716.00;6268231;28;20234;-39
2023/03/04 08:58:22;;;;;;;31.27;23.30;;;;;;;12.33;38.43;97697.81;6274297;28;20248;-38
2023/03/04 09:01:24;;;;;;;34.40;22.80;;;;;;;11.78;40.74;97714.00;6268295;28;20259;-38
2023/03/04 09:04:26;;;;;;;30.43;22.17;;;;;;;11.36;41.26;97735.84;6266089;28;20738;-38
2023/03/04 09:07:28;;;;;;;27.40;21.27;;;;;;;10.88;42.13;97699.94;6268417;28;20292;-38
2023/03/04 09:10:30;;;;;;;30.40;21.57;;;;;;;10.61;43.20;97704.31;6267604;28;20246;-38
2023/03/04 09:13:33;;;;;;;33.50;24.30;;;;;;;10.28;44.07;97712.00;6270264;28;20411;-38
2023/03/04 09:16:35;;;;;;;32.13;23.67;;;;;;;10.35;44.21;97703.88;6264545;28;20843;-38
2023/03/04 09:19:39;;;;;;;34.00;24.13;;;;;;;10.15;45.31;97738.91;6269099;28;20707;-38
2023/03/04 09:22:50;;;;;;;33.13;24.87;;;;;;;10.15;45.12;97712.28;6265514;28;20233;-39
2023/03/04 09:25:59;;;;;;;37.77;26.33;;;;;;;9.76;46.83;97706.72;6272052;28;20230;-38
2023/03/04 09:29:02;;;;;;;34.77;24.90;;;;;;;10.02;46.33;97707.22;6290679;28;20226;-38
2023/03/04 09:32:05;;;;;;;41.13;27.37;;;;;;;10.00;46.90;97709.28;6295771;28;20597;-39
2023/03/04 09:35:08;;;;;;;38.20;26.07;;;;;;;10.19;46.76;97712.59;6292901;28;20230;-38
2023/03/04 09:38:10;;;;;;;33.77;24.93;;;;;;;10.42;46.13;97706.38;6273142;28;20236;-38
2023/03/04 09:41:20;;;;;;;34.57;24.80;;;;;;;10.62;45.73;97711.25;6292494;28;20226;-39
2023/03/04 09:44:42;;;;;;;39.63;27.00;;;;;;;10.41;46.44;97699.44;6289302;28;20715;-38
2023/03/04 09:47:47;;;;;;;40.03;26.67;;;;;;;10.63;45.72;97712.84;6292677;28;20234;-38
2023/03/04 09:51:05;;;;;;;41.77;27.13;;;;;;;10.48;46.27;97711.53;6293868;28;20719;-38
2023/03/04 09:54:14;;;;;;;40.47;28.03;;;;;;;10.33;45.80;97713.94;6294097;28;20335;-37
2023/03/04 09:57:28;;;;;;;36.03;26.90;;;;;;;10.53;45.20;97705.50;6291332;28;20222;-37
2023/03/04 10:00:39;;;;;;;38.27;26.33;;;;;;;10.89;44.47;97696.25;6295258;28;20718;-39
2023/03/04 10:03:47;;;;;;;35.13;24.77;;;;;;;11.28;43.74;97694.41;6300718;28;20214;-37
2023/03/04 10:06:53;;;;;;;40.57;25.43;;;;;;;11.41;43.69;97693.25;6304894;28;20596;-37
2023/03/04 10:10:12;;;;;;;37.80;25.97;;;;;;;11.50;42.32;97678.44;6295164;28;20731;-37
2023/03/04 10:13:21;;;;;;;36.23;24.83;;;;;;;11.78;42.04;97692.66;6290504;28;20247;-37
2023/03/04 10:16:30;;;;;;;39.80;25.53;;;;;;;11.12;42.62;97687.25;6299634;28;20243;-37
2023/03/04 10:19:56;;;;;;;36.23;25.30;;;;;;;11.14;42.80;97703.00;6292455;28;20237;-37
2023/03/04 10:23:09;;;;;;;38.47;26.17;;;;;;;11.04;43.06;97683.16;6295121;28;20214;-37
2023/03/04 10:26:19;;;;;;;35.03;23.93;;;;;;;10.98;42.34;97693.97;6297070;28;20707;-37
2023/03/04 10:29:23;;;;;;;40.17;24.90;;;;;;;11.18;42.38;97680.13;6295842;28;20229;-37
2023/03/04 10:32:25;;;;;;;34.37;24.17;;;;;;;11.27;41.92;97670.66;6274442;28;20320;-38
2023/03/04 10:35:35;;;;;;;34.57;23.63;;;;;;;11.81;41.47;97663.56;6298460;28;20243;-37
2023/03/04 10:38:40;;;;;;;38.53;24.00;;;;;;;11.99;39.84;97662.47;6290196;28;20240;-38
2023/03/04 10:41:45;;;;;;;31.97;21.63;;;;;;;11.87;39.96;97619.09;6288388;28;20244;-37
2023/03/04 10:44:53;;;;;;;33.30;24.67;;;;;;;12.69;38.54;97643.88;6295089;28;20467;-37
2023/03/04 10:47:55;;;;;;;29.63;21.00;;;;;;;12.90;38.99;97637.59;6291992;28;20235;-37
2023/03/04 10:51:17;;;;;;;30.83;20.47;;;;;;;13.16;37.29;97642.06;6294546;28;20703;-37
2023/03/04 10:54:30;;;;;;;32.30;22.07;;;;;;;12.66;37.15;97663.91;6296175;28;20221;-38
2023/03/04 10:57:36;;;;;;;27.50;20.40;;;;;;;12.27;38.15;97647.28;6296841;28;20715;-38
2023/03/04 11:00:38;;;;;;;30.47;20.87;;;;;;;12.37;38.20;97650.03;6289904;28;20318;-38
2023/03/04 11:03:47;;;;;;;28.43;20.90;;;;;;;12.66;37.96;97645.19;6289044;28;20345;-37
2023/03/04 11:06:50;;;;;;;25.97;19.53;;;;;;;12.76;36.98;97639.94;6276415;28;20275;-37
2023/03/04 11:09:53;;;;;;;27.33;19.73;;;;;;;12.46;36.85;97623.63;6292204;28;20603;-37
2023/03/04 11:13:02;;;;;;;28.93;20.70;;;;;;;12.47;37.35;97638.63;6288181;28;20284;-38
2023/03/04 11:16:24;;;;;;;28.77;19.67;;;;;;;12.49;36.64;97645.31;6294432;28;20304;-44
2023/03/04 11:19:40;;;;;;;23.87;18.03;;;;;;;12.61;35.61;97661.16;6292780;28;20238;-37
2023/03/04 11:22:45;;;;;;;24.33;17.00;;;;;;;12.38;35.82;97631.06;6288833;28;20320;-38
2023/03/04 11:26:09;;;;;;;27.97;18.23;;;;;;;12.18;36.64;97640.78;6287833;28;20227;-37
2023/03/04 11:29:17;;;;;;;22.77;17.40;;;;;;;12.37;36.87;97629.47;6287964;28;20230;-38
2023/03/04 11:32:36;;;;;;;28.40;18.37;;;;;;;12.57;36.59;97636.03;6289169;28;20222;-37
2023/03/04 11:35:47;;;;;;;24.40;17.73;;;;;;;12.81;35.21;97625.81;6293647;28;20224;-37
2023/03/04 11:38:51;;;;;;;22.87;16.70;;;;;;;12.75;35.59;97627.59;6288676;28;20711;-37
2023/03/04 11:42:00;;;;;;;22.50;16.20;;;;;;;12.88;35.52;97613.00;6289346;28;20264;-37
2023/03/04 11:45:10;;;;;;;25.07;17.70;;;;;;;12.66;35.26;97618.47;6271288;28;20564;-37
2023/03/04 11:48:44;;;;;;;27.17;18.70;;;;;;;11.97;37.18;97605.03;6287461;28;20226;-37
2023/03/04 11:52:02;;;;;;;24.80;16.93;;;;;;;12.05;36.78;97613.41;6291442;28;20323;-37
2023/03/04 11:55:07;;;;;;;23.37;16.97;;;;;;;12.23;36.18;97595.41;6284484;28;20253;-37
2023/03/04 11:58:39;;;;;;;29.00;20.30;;;;;;;11.28;37.05;97498.91;6290131;28;20255;-38
2023/03/04 12:01:57;;;;;;;27.20;18.43;;;;;;;11.70;37.09;97583.66;6294758;28;20244;-38
2023/03/04 12:05:26;;;;;;;26.50;17.67;;;;;;;11.82;37.20;97584.34;6292679;28;20235;-38
2023/03/04 12:08:40;;;;;;;26.10;18.63;;;;;;;11.75;38.28;97591.72;6292600;28;20244;-38
2023/03/04 12:11:56;;;;;;;26.33;17.63;;;;;;;11.91;37.69;97592.72;6294406;28;20225;-39
2023/03/04 12:15:13;;;;;;;29.17;18.40;;;;;;;11.89;37.48;97576.97;6286416;28;20314;-38
2023/03/04 12:18:34;;;;;;;25.03;17.83;;;;;;;11.66;37.20;97599.38;6284162;28;20720;-38
2023/03/04 12:21:48;;;;;;;25.20;16.93;;;;;;;11.31;37.91;97570.44;6292012;28;20697;-38
2023/03/04 12:24:53;;;;;;;22.87;16.10;;;;;;;11.18;38.53;97571.63;6292560;28;20268;-39
2023/03/04 12:28:19;;;;;;;22.27;16.07;;;;;;;11.40;37.60;97570.81;6284397;28;20226;-38
2023/03/04 12:31:35;;;;;;;22.87;17.03;;;;;;;11.24;37.99;97569.81;6290700;28;20230;-38
2023/03/04 12:34:59;;;;;;;25.73;16.60;;;;;;;10.96;38.53;97552.94;6291396;28;20229;-38
2023/03/04 12:38:13;;;;;;;21.57;15.70;;;;;;;10.97;38.11;97564.41;6289048;28;20225;-38
2023/03/04 12:41:47;;;;;;;21.90;15.27;;;;;;;10.93;38.45;97564.09;6291712;28;20282;-38
2023/03/04 12:45:22;;;;;;;25.30;17.17;;;;;;;10.96;39.10;97554.81;6292319;28;20702;-38
2023/03/04 12:48:32;;;;;;;22.70;16.90;;;;;;;11.04;38.97;97554.38;6269779;28;20582;-38
2023/03/04 12:51:45;;;;;;;21.73;15.77;;;;;;;11.21;38.72;97571.13;6297190;28;20597;-38
2023/03/04 12:54:51;;;;;;;23.73;16.37;;;;;;;11.07;39.09;97559.22;6294545;28;20326;-38
2023/03/04 12:57:55;;;;;;;22.33;15.43;;;;;;;11.02;39.10;97549.28;6297238;28;20232;-38
2023/03/04 13:01:21;;;;;;;21.43;15.53;;;;;;;11.04;38.77;97555.19;6296828;28;20328;-38
2023/03/04 13:04:44;;;;;;;24.03;16.60;;;;;;;10.90;38.73;97561.13;6301541;28;20772;-38
2023/03/04 13:08:05;;;;;;;22.37;15.20;;;;;;;11.16;38.12;97556.91;6296089;28;20256;-38
2023/03/04 13:11:25;;;;;;;21.23;15.70;;;;;;;11.16;37.27;97549.72;6294581;28;20633;-38
2023/03/04 13:14:29;;;;;;;18.83;14.50;;;;;;;11.09;37.97;97544.59;6298166;28;20243;-38
2023/03/04 13:17:54;;;;;;;21.40;15.07;;;;;;;11.17;38.07;97535.34;6295379;28;20604;-38
2023/03/04 13:21:13;;;;;;;17.77;14.37;;;;;;;11.16;37.55;97547.06;6299379;28;20600;-39
2023/03/04 13:24:45;;;;;;;23.67;15.53;;;;;;;11.06;37.45;97536.28;6300391;28;20285;-38
2023/03/04 13:27:50;;;;;;;19.97;14.47;;;;;;;11.11;37.99;97545.13;6294299;28;20282;-37
2023/03/04 13:30:55;;;;;;;22.50;14.30;;;;;;;10.93;37.23;97540.09;6276652;28;20229;-38
2023/03/04 13:33:59;;;;;;;21.37;14.67;;;;;;;11.02;37.45;97535.94;6301604;28;20236;-38
2023/03/04 13:37:03;;;;;;;22.27;15.10;;;;;;;10.89;37.87;97522.22;6296205;28;20714;-38
2023/03/04 13:40:23;;;;;;;18.93;14.17;;;;;;;11.02;37.40;97517.28;6300374;28;20227;-38
2023/03/04 13:43:51;;;;;;;19.73;14.00;;;;;;;11.00;37.38;97516.75;6300510;28;20307;-38
2023/03/04 13:46:55;;;;;;;20.77;14.80;;;;;;;10.90;37.56;97510.50;6302128;28;20235;-38
2023/03/04 13:50:26;;;;;;;17.07;12.20;;;;;;;11.03;37.31;97528.75;6296014;28;20904;-38
2023/03/04 13:53:42;;;;;;;19.93;14.03;;;;;;;11.11;37.15;97505.16;6297185;28;20232;-38
2023/03/04 13:56:46;;;;;;;17.47;13.20;;;;;;;10.90;37.27;97508.63;6291491;28;20374;-37
2023/03/04 13:59:54;;;;;;;20.63;14.17;;;;;;;10.74;37.87;97506.84;6297883;28;20873;-38
2023/03/04 14:02:55;;;;;;;19.70;13.90;;;;;;;10.71;37.61;97480.69;6288760;28;20270;-37
2023/03/04 14:06:16;;;;;;;22.77;14.80;;;;;;;10.72;38.45;97501.72;6289541;28;20227;-38
2023/03/04 14:09:27;;;;;;;18.80;14.07;;;;;;;10.72;38.33;97495.59;6293670;28;20404;-38
2023/03/04 14:12:57;;;;;;;21.37;13.70;;;;;;;10.72;38.03;97498.25;6291305;28;20233;-37
2023/03/04 14:16:00;;;;;;;18.13;14.17;;;;;;;10.75;37.87;97500.44;6289799;28;20235;-37
2023/03/04 14:19:05;;;;;;;20.20;14.83;;;;;;;10.88;37.87;97483.28;6292419;28;20240;-38
2023/03/04 14:22:26;;;;;;;19.03;13.33;;;;;;;10.68;38.12;97505.13;6272466;28;20232;-37